Latest Weather Observations for West Wyalong

IDN60801

Issued at 5:32 pm EDT Saturday 10 December 2016 (issued every 30 minutes, with the page automatically refreshed every 10 minutes)

About weather observations | Map of weather stations | Latest weather observations for NSW | Other Formats
Station Details ID: 050017 Name: WEST WYALONG AIRPORT AWS Lat: -33.94 Lon: 147.20 Height: 257.0 m
Data from the previous 72 hours. | See also: Recent months at West Wyalong
Date/Time
EDT
Temp
°C
App
Temp
°C
Dew
Point
°C
Rel
Hum
%
Delta-T
°C
Wind Press
QNH
hPa
Press
MSL
hPa
Rain since
9am
mm
Dir  Spd
km/h
Gust
km/h
Spd
kts
Gust
kts
10/05:30pm 27.0 22.4 1.4 19 12.4 W 15 26 8 14 1018.4 1017.2 0.0
10/05:00pm 26.1 21.5 1.4 20 11.9 SW 15 26 8 14 1018.7 1017.5 0.0
10/04:30pm 26.5 21.3 0.3 18 12.4 SSW 17 24 9 13 1019.0 1017.9 0.0
10/04:00pm 26.9 23.2 2.1 20 12.1 SW 11 24 6 13 1019.2 1018.1 0.0
10/03:30pm 26.8 21.8 1.3 19 12.3 W 17 26 9 14 1019.7 1018.6 0.0
10/03:00pm 26.0 21.9 2.0 21 11.7 SW 13 26 7 14 1020.1 1019.0 0.0
10/02:30pm 26.0 20.9 0.6 19 12.1 W 17 24 9 13 1020.6 1019.5 0.0
10/02:00pm 25.2 20.7 2.0 22 11.2 WSW 15 26 8 14 1020.8 1019.7 0.0
10/01:30pm 24.8 20.8 2.9 24 10.8 WSW 13 22 7 12 1021.3 1020.1 0.0
10/01:00pm 23.2 19.2 2.7 26 9.9 W 13 26 7 14 1021.6 1020.4 0.0
10/12:30pm 22.8 19.2 2.8 27 9.7 WSW 11 20 6 11 1021.9 1020.7 0.0
10/12:00pm 22.3 17.8 2.4 27 9.5 WSW 15 24 8 13 1022.0 1020.8 0.0
10/11:30am 21.3 16.9 2.6 29 8.9 WSW 15 22 8 12 1022.4 1021.3 0.0
10/11:00am 20.7 17.3 3.9 33 8.1 W 11 20 6 11 1022.5 1021.4 0.0
10/10:30am 20.5 16.0 4.1 34 8.0 SW 17 32 9 17 1022.6 1021.5 0.0
10/10:00am 19.4 15.2 3.6 35 7.5 SSW 15 24 8 13 1022.7 1021.6 0.0
10/09:30am 18.5 15.5 3.9 38 7.0 SSW 9 22 5 12 1022.7 1021.6 0.0
10/09:00am 17.1 14.6 3.8 41 6.3 SW 6 9 3 5 1022.8 1021.7 0.0
10/08:30am 16.4 13.7 3.8 43 5.9 ESE 7 11 4 6 1022.6 1021.5 0.0
10/08:00am 15.1 12.7 4.5 49 5.0 SSE 6 9 3 5 1022.4 1021.3 0.0
10/07:30am 12.2 9.9 4.9 61 3.4 SW 6 9 3 5 1022.1 1020.9 0.0
10/07:00am 9.8 7.7 5.6 75 1.9 SW 6 7 3 4 1021.6 1020.4 0.0
10/06:30am 7.2 4.9 4.7 84 1.1 W 6 7 3 4 1021.3 1020.1 0.0
10/06:00am 6.1 3.4 3.8 85 1.0 W 7 9 4 5 1020.8 1019.7 0.0
10/05:30am 6.4 3.7 3.6 82 1.2 WSW 7 9 4 5 1020.6 1019.5 0.0
10/05:00am 7.8 5.2 4.2 78 1.6 WSW 7 11 4 6 1020.3 1019.2 0.0
10/04:30am 7.7 4.4 4.8 82 1.3 WSW 11 15 6 8 1019.9 1018.8 0.0
10/04:00am 8.2 5.2 3.9 74 1.9 W 9 11 5 6 1019.8 1018.7 0.0
10/03:30am 8.9 6.4 3.5 69 2.4 S 6 9 3 5 1019.5 1018.4 0.0
10/03:00am 9.2 7.0 3.6 68 2.5 W 4 7 2 4 1019.5 1018.4 0.0
10/02:30am 9.9 7.7 3.6 65 2.8 S 4 9 2 5 1019.4 1018.3 0.0
10/02:00am 9.8 8.4 3.5 65 2.8 CALM 0 6 0 3 1019.6 1018.5 0.0
10/01:30am 10.8 8.2 3.4 60 3.3 S 6 11 3 6 1019.7 1018.6 0.0
10/01:00am 11.9 9.1 3.2 55 3.9 SSW 7 11 4 6 1019.9 1018.8 0.0
10/12:30am 12.6 9.4 3.0 52 4.3 SSW 9 13 5 7 1019.9 1018.8 0.0
10/12:00am 13.6 9.6 3.1 49 4.7 SSW 13 17 7 9 1019.8 1018.7 0.0
 
Date/Time
EDT
Temp
°C
App
Temp
°C
Dew
Point
°C
Rel
Hum
%
Delta-T
°C
Wind Press
QNH
hPa
Press
MSL
hPa
Rain since
9am
mm
Dir  Spd
km/h
Gust
km/h
Spd
kts
Gust
kts
09/11:30pm 12.5 9.0 3.5 54 4.1 SW 11 13 6 7 1019.7 1018.6 0.0
09/11:00pm 13.0 9.9 3.4 52 4.3 SW 9 11 5 6 1019.6 1018.5 0.0
09/10:30pm 12.0 8.9 3.5 56 3.8 WSW 9 9 5 5 1019.4 1018.3 0.0
09/10:00pm 13.9 11.0 2.8 47 5.0 SSW 7 9 4 5 1019.2 1018.1 0.0
09/09:30pm 14.5 11.7 3.0 46 5.2 SSW 7 11 4 6 1018.7 1017.5 0.0
09/09:00pm 15.2 11.9 2.4 42 5.8 SSW 9 13 5 7 1018.4 1017.2 0.0
09/08:30pm 17.3 13.4 1.3 34 7.2 SSW 11 15 6 8 1018.2 1017.0 0.0
09/08:00pm 18.8 13.8 1.3 31 7.9 SSW 17 26 9 14 1017.9 1016.7 0.0
09/07:30pm 20.2 14.6 1.1 28 8.8 SSW 20 28 11 15 1017.5 1016.3 0.0
09/07:00pm 20.9 15.2 0.7 26 9.2 SSW 20 30 11 16 1016.9 1015.8 0.0
09/06:30pm 21.4 15.0 1.1 26 9.4 SSW 24 35 13 19 1016.4 1015.3 0.0
09/06:00pm 21.6 14.3 0.2 24 9.7 SW 28 37 15 20 1016.0 1014.9 0.0
09/05:30pm 21.8 14.9 0.4 24 9.8 SSW 26 39 14 21 1015.7 1014.6 0.0
09/05:00pm 22.3 15.9 0.8 24 10.0 SSW 24 43 13 23 1015.6 1014.5 0.0
09/04:30pm 22.0 14.8 0.5 24 9.9 SW 28 39 15 21 1015.7 1014.6 0.0
09/04:04pm 22.5 15.3 0.9 24 10.0 SW 28 57 15 31 1015.5 1014.4 0.0
09/04:00pm 21.5 13.9 0.7 25 9.5 SW 30 43 16 23 1015.7 1014.6 0.0
09/03:30pm 21.8 15.0 0.9 25 9.7 SW 26 41 14 22 1015.7 1014.6 0.0
09/03:00pm 21.6 14.4 0.8 25 9.6 SW 28 43 15 23 1016.1 1015.0 0.0
09/02:30pm 21.4 13.7 0.0 24 9.7 SW 30 41 16 22 1016.0 1014.9 0.0
09/02:00pm 21.2 13.9 2.5 29 8.9 SW 30 44 16 24 1016.1 1015.0 0.0
09/01:30pm 20.2 13.2 2.1 30 8.5 SW 28 44 15 24 1016.3 1015.2 0.0
09/01:17pm 20.0 13.0 1.9 30 8.4 WSW 28 46 15 25 1016.4 1015.3 0.0
09/01:00pm 19.1 11.3 2.0 32 7.9 SW 32 43 17 23 1016.4 1015.3 0.0
09/12:30pm 18.6 11.2 1.6 32 7.8 SW 30 44 16 24 1016.5 1015.4 0.0
09/12:00pm 18.4 11.6 3.1 36 7.2 SW 28 39 15 21 1016.5 1015.4 0.0
09/11:30am 17.6 10.5 3.5 39 6.6 SW 30 41 16 22 1016.4 1015.3 0.0
09/11:00am 16.2 8.7 4.6 46 5.5 SW 33 44 18 24 1016.2 1015.1 0.0
09/10:30am 15.6 9.4 6.1 53 4.7 SW 28 37 15 20 1015.9 1014.8 0.0
09/10:00am 15.3 10.1 7.1 58 4.1 SW 24 33 13 18 1015.7 1014.6 0.0
09/09:30am 14.2 8.9 7.0 62 3.6 SW 24 37 13 20 1015.5 1014.4 0.0
09/09:00am 12.8 7.8 7.9 72 2.4 WSW 24 39 13 21 1015.3 1014.1 3.8
09/08:30am 12.1 6.7 7.8 75 2.1 WSW 26 35 14 19 1015.0 1013.8 3.8
09/08:00am 11.4 6.5 8.4 82 1.5 WSW 24 32 13 17 1014.6 1013.4 3.8
09/07:30am 11.3 5.5 7.8 79 1.7 WSW 28 39 15 21 1013.8 1012.6 3.8
09/07:00am 11.4 6.4 7.9 79 1.7 WSW 24 33 13 18 1013.1 1011.9 3.8
09/06:30am 10.6 6.5 7.7 82 1.4 WSW 19 26 10 14 1012.6 1011.5 3.8
09/06:00am 10.2 6.0 7.6 84 1.3 WSW 19 26 10 14 1012.0 1010.9 3.8
09/05:30am 10.5 6.1 7.4 81 1.5 WSW 20 26 11 14 1011.5 1010.3 3.8
09/05:00am 10.9 5.7 7.4 79 1.7 WSW 24 33 13 18 1010.8 1009.6 3.8
09/04:30am 11.2 6.0 7.3 77 1.9 WSW 24 30 13 16 1010.5 1009.3 3.8
09/04:00am 11.1 6.2 7.0 76 2.0 WSW 22 30 12 16 1010.0 1008.8 3.8
09/03:30am 11.7 6.8 6.8 72 2.4 WSW 22 33 12 18 1009.7 1008.5 3.8
09/03:00am 12.1 6.8 7.0 71 2.5 WSW 24 32 13 17 1009.5 1008.3 3.8
09/02:30am 12.4 7.6 7.3 71 2.5 WSW 22 30 12 16 1009.4 1008.2 3.8
09/02:00am 12.4 8.1 7.9 74 2.2 WSW 20 28 11 15 1009.3 1008.1 3.8
09/01:30am 12.8 8.6 8.1 73 2.4 WSW 20 28 11 15 1009.1 1007.9 3.8
09/01:00am 13.0 9.8 8.5 74 2.3 WSW 15 20 8 11 1009.0 1007.8 3.8
09/12:30am 13.4 10.5 9.8 79 1.9 W 15 20 8 11 1008.6 1007.5 3.8
09/12:00am 13.4 11.4 11.5 88 1.0 WNW 13 17 7 9 1008.5 1007.3 3.8
 
Date/Time
EDT
Temp
°C
App
Temp
°C
Dew
Point
°C
Rel
Hum
%
Delta-T
°C
Wind Press
QNH
hPa
Press
MSL
hPa
Rain since
9am
mm
Dir  Spd
km/h
Gust
km/h
Spd
kts
Gust
kts
08/11:30pm 13.6 11.8 12.2 91 0.8 WNW 13 19 7 10 1008.2 1007.0 3.8
08/11:00pm 13.6 11.4 12.2 91 0.8 NW 15 19 8 10 1007.8 1006.6 3.8
08/10:30pm 13.7 12.0 12.3 91 0.8 WNW 13 17 7 9 1007.7 1006.5 3.8
08/10:00pm 13.8 12.1 12.4 91 0.8 NW 13 17 7 9 1007.6 1006.4 3.8
08/09:30pm 13.7 12.7 12.4 92 0.7 NNW 9 11 5 6 1007.2 1006.0 3.8
08/09:00pm 13.9 13.0 12.5 91 0.8 NW 9 9 5 5 1006.8 1005.6 3.8
08/08:30pm 14.6 13.7 12.5 87 1.2 W 9 11 5 6 1006.3 1005.1 3.8
08/08:00pm 15.3 14.0 12.6 84 1.5 SW 11 17 6 9 1005.7 1004.5 3.8
08/07:30pm 15.8 13.4 12.5 81 1.8 SW 17 24 9 13 1005.2 1004.0 3.8
08/07:00pm 15.0 12.9 13.7 92 0.7 SW 17 26 9 14 1004.6 1003.4 3.8
08/06:30pm 14.7 11.3 13.6 93 0.6 SW 24 33 13 18 1004.4 1003.2 3.2
08/06:00pm 15.1 10.5 13.6 91 0.9 SW 30 41 16 22 1003.9 1002.7 3.0
08/05:30pm 15.4 10.4 13.9 91 0.9 SW 33 43 18 23 1003.4 1002.2 2.8
08/05:03pm 15.9 10.0 14.6 92 0.8 WSW 39 59 21 32 1003.3 1002.1 2.8
08/05:00pm 16.0 9.7 14.7 92 0.8 WSW 41 56 22 30 1003.2 1002.0 2.6
08/04:30pm 19.5 15.4 17.3 87 1.4 W 35 56 19 30 1002.5 1001.3 1.0
08/04:00pm 23.1 15.5 15.7 63 4.5 WSW 50 69 27 37 1002.1 1000.9 0.0
08/03:30pm 26.9 18.9 12.5 40 8.5 WSW 46 65 25 35 1001.2 999.9 0.0
08/03:07pm 29.6 23.2 10.7 31 10.9 W 35 65 19 35 1000.8 999.5 0.0
08/03:04pm 31.2 25.5 8.2 24 12.8 W 28 48 15 26 1000.7 999.4 0.0
08/03:00pm 31.3 26.2 7.7 23 13.1 W 24 41 13 22 1000.5 999.3 0.0
08/02:36pm 32.3 26.1 7.9 22 13.6 WNW 30 48 16 26 1000.9 999.6 0.0
08/02:30pm 33.1 27.1 7.1 20 14.4 WNW 28 35 15 19 1000.8 999.5 0.0
08/02:00pm 33.9 27.5 8.5 21 14.5 WNW 32 50 17 27 1001.0 999.7 0.0
08/01:44pm 33.7 27.7 6.9 19 14.8 WNW 28 48 15 26 1001.5 1000.2 0.0
08/01:30pm 31.7 25.5 8.0 23 13.2 WNW 30 43 16 23 1001.9 1000.7 0.0
08/01:00pm 33.6 28.8 9.0 22 14.1 NW 24 35 13 19 1002.3 1001.1 0.0
08/12:30pm 32.9 27.4 9.0 23 13.6 NW 28 50 15 27 1002.8 1001.6 0.0
08/12:01pm 31.4 25.9 9.0 25 12.7 NW 28 54 15 29 1003.4 1002.2 0.0
08/12:00pm 32.2 27.2 9.7 25 13.0 NW 26 44 14 24 1003.5 1002.3 0.0
08/11:30am 31.3 25.9 9.5 26 12.4 NW 28 44 15 24 1004.0 1002.8 0.0
08/11:00am 31.2 25.6 8.8 25 12.7 NNW 28 41 15 22 1004.5 1003.3 0.0
08/10:30am 30.6 25.4 8.9 26 12.2 NNW 26 39 14 21 1005.3 1004.1 0.0
08/10:00am 29.3 24.0 8.4 27 11.6 NNW 26 41 14 22 1005.7 1004.5 0.0
08/09:30am 27.7 22.8 8.6 30 10.5 N 24 35 13 19 1006.3 1005.1 0.0
08/09:00am 25.4 21.2 9.7 37 8.8 N 22 30 12 16 1006.5 1005.3 0.0
08/08:30am 25.1 21.4 10.2 39 8.3 N 20 28 11 15 1006.8 1005.6 0.0
08/08:00am 23.3 19.6 9.3 41 7.7 N 19 26 10 14 1006.8 1005.6 0.0
08/07:30am 21.0 18.1 8.3 44 6.7 NNE 13 17 7 9 1006.9 1005.7 0.0
08/07:00am 18.8 17.5 9.3 54 5.1 NE 6 11 3 6 1007.0 1005.8 0.0
08/06:30am 13.8 13.3 8.0 68 2.9 CALM 0 0 0 0 1007.4 1006.2 0.0
08/06:00am 12.3 10.8 6.8 69 2.7 NNE 4 6 2 3 1007.6 1006.4 0.0
08/05:30am 13.1 12.2 6.2 63 3.3 CALM 0 0 0 0 1007.6 1006.4 0.0
08/05:00am 13.7 11.7 6.1 60 3.7 N 6 7 3 4 1007.2 1006.0 0.0
08/04:30am 13.2 11.0 6.3 63 3.3 N 7 9 4 5 1007.1 1005.9 0.0
08/04:00am 13.1 12.2 6.0 62 3.4 CALM 0 6 0 3 1007.4 1006.2 0.0
08/03:30am 13.0 11.7 5.9 62 3.4 NNE 2 7 1 4 1007.8 1006.6 0.0
08/03:00am 13.2 11.0 5.4 59 3.7 WSW 6 7 3 4 1008.3 1007.1 0.0
08/02:30am 12.9 11.0 5.1 59 3.7 N 4 7 2 4 1008.9 1007.7 0.0
08/02:00am 13.4 12.3 5.3 58 3.8 CALM 0 0 0 0 1009.4 1008.2 0.0
08/01:30am 13.6 11.4 5.3 57 3.9 WSW 6 6 3 3 1009.8 1008.6 0.0
08/01:00am 14.1 13.1 5.7 57 4.0 CALM 0 7 0 4 1010.3 1009.1 0.0
08/12:30am 14.8 13.9 5.9 55 4.3 CALM 0 0 0 0 1010.8 1009.6 0.0
08/12:00am 14.9 13.4 4.9 51 4.8 W 2 6 1 3 1010.9 1009.7 0.0
 
Date/Time
EDT
Temp
°C
App
Temp
°C
Dew
Point
°C
Rel
Hum
%
Delta-T
°C
Wind Press
QNH
hPa
Press
MSL
hPa
Rain since
9am
mm
Dir  Spd
km/h
Gust
km/h
Spd
kts
Gust
kts
07/11:30pm 15.5 13.2 4.8 49 5.1 W 6 7 3 4 1011.2 1010.0 0.0
07/11:00pm 16.8 14.6 5.1 46 5.7 WNW 6 9 3 5 1011.1 1009.9 0.0
07/10:30pm 17.8 16.0 5.4 44 6.1 NW 4 6 2 3 1011.2 1010.0 0.0
07/10:00pm 17.7 16.6 5.0 43 6.2 CALM 0 0 0 0 1011.3 1010.1 0.0
07/09:30pm 18.5 17.3 4.7 40 6.7 CALM 0 0 0 0 1011.4 1010.2 0.0
07/09:00pm 20.7 19.4 3.9 33 8.2 CALM 0 0 0 0 1011.5 1010.3 0.0
07/08:30pm 23.6 20.9 2.4 25 10.2 SSW 6 7 3 4 1011.6 1010.4 0.0
07/08:00pm 26.5 23.8 2.4 21 11.9 SSW 6 9 3 5 1011.7 1010.5 0.0
07/07:30pm 28.6 24.3 1.2 17 13.4 SW 13 15 7 8 1011.6 1010.4 0.0
07/07:00pm 29.6 25.3 1.1 16 14.0 SW 13 19 7 10 1011.4 1010.2 0.0
07/06:30pm 30.1 25.4 0.6 15 14.4 SSW 15 28 8 15 1011.5 1010.3 0.0
07/06:00pm 30.5 25.7 0.0 14 14.8 WSW 15 24 8 13 1011.6 1010.4 0.0

Other Formats:

Comma delimited format used in spreadsheet applications
http://www.bom.gov.au/fwo/IDN60801/IDN60801.95709.axf

JavaScript Object Notation format (JSON) in row-major order
http://www.bom.gov.au/fwo/IDN60801/IDN60801.95709.json